Archival Weather

Vermilion Rgnl

Danville, Illinois (KDNV)

Report from: Saturday, April 13, 2024 10:15 PM CDT
Current time: Sunday, July 14, 2024 5:44 AM CDT

Current weather – Weather history – Daily summaries
Weather forecast

Temperature16.5°C (61.7°F)
Dew point5.6°C (42.1°F)
Winds 13 kts (6.7 m/s, 15 mph) South (180°)
Wind gusts 17 kts (8.7 m/s, 19.6 mph)
Visibility10 mi. (16.1 km)
Clouds Sky clear
Altimeter29.93 in.Hg (1014 mB)
Relative humidity49 %
Density altitude300 ft. (92 m)
Remarks Fully automated report
Automated weather observing station with precipitation discriminator
Flight conditions Visual Meteorological Conditions
Raw dataKDNV 140315Z AUTO 18013G17KT 10SM CLR 17/06 A2993 RMK AO2 T01650056
An error has occurred. This application may no longer respond until reloaded. Reload 🗙